Terminal Aerodrome Forecast
Issued by NWS

Home | Current Version | Previous Version | Text Only | Print | Product List | Glossary Off
Versions: 1 2 3 4 5 6 7 8 9 10 11 12 13

341
FTUS45 KGGW 261124
TAFSDY
TAF
KSDY 261124Z 2612/2712 00000KT P6SM BKN130
     FM261700 29006KT P6SM FEW150
     FM270700 00000KT P6SM FEW100=

USA.gov is the U.S. government's official web portal to all federal, state and local government web resources and services.